Latest Weather Observations for Lake Grace

IDW60801

Issued at 9:03 pm WST Wednesday 8 July 2020 (issued every 10 minutes, with the page automatically refreshed every 10 minutes)

About weather observations | Map of weather stations | Latest weather observations for WA | Other Formats
Station Details ID: 010911 Name: LAKE GRACE Lat: -33.10 Lon: 118.46 Height: 286.0 m
Data from the previous 72 hours. | See also: Recent months at Lake Grace
Date/Time
WST
Temp
°C
App
Temp
°C
Dew
Point
°C
Rel
Hum
%
Delta-T
°C
Wind Press
QNH
hPa
Press
MSL
hPa
Rain since
9am
mm
Dir  Spd
km/h
Gust
km/h
Spd
kts
Gust
kts
08/09:00pm 10.8 9.2 8.0 83 1.4 SSW 6 7 3 4 1023.3 1023.6 0.2
08/08:30pm 11.0 9.2 8.1 82 1.4 SSW 7 11 4 6 1023.3 1023.6 0.2
08/08:00pm 11.0 9.0 7.3 78 1.8 SSW 7 11 4 6 1023.2 1023.4 0.2
08/07:30pm 10.8 8.8 6.9 77 1.9 SW 7 9 4 5 1023.0 1023.2 0.2
08/07:00pm 10.9 8.8 6.8 76 2.0 WSW 7 9 4 5 1023.0 1023.2 0.2
08/06:30pm 11.7 9.3 7.2 74 2.2 W 9 13 5 7 1022.7 1022.9 0.2
08/06:00pm 12.1 10.4 7.4 73 2.3 W 6 9 3 5 1022.6 1022.8 0.2
08/05:30pm 12.3 10.4 7.4 72 2.4 W 7 11 4 6 1022.5 1022.7 0.2
08/05:00pm 12.8 10.9 7.5 70 2.6 WSW 7 11 4 6 1022.2 1022.4 0.2
08/04:30pm 12.9 10.1 7.1 68 2.8 W 11 17 6 9 1022.2 1022.4 0.2
08/04:00pm 12.6 10.0 7.7 72 2.4 W 11 17 6 9 1022.1 1022.3 0.2
08/03:30pm 12.6 8.6 8.3 75 2.2 WSW 19 30 10 16 1022.0 1022.2 0.2
08/03:00pm 13.1 9.7 7.8 70 2.6 SSW 15 22 8 12 1022.0 1022.2 0.2
08/02:30pm 13.3 10.3 7.7 69 2.8 SW 13 20 7 11 1021.9 1022.1 0.0
08/02:00pm 12.7 9.6 7.2 69 2.7 WSW 13 20 7 11 1021.9 1022.1 0.0
08/01:30pm 13.1 9.6 7.1 67 3.0 WSW 15 22 8 12 1022.0 1022.2 0.0
08/01:00pm 13.3 9.4 7.1 66 3.0 SW 17 28 9 15 1022.2 1022.4 0.0
08/12:30pm 13.0 9.1 7.2 68 2.9 WSW 17 26 9 14 1022.3 1022.5 0.0
08/12:00pm 13.1 8.2 7.1 67 2.9 WSW 22 33 12 18 1022.7 1022.9 0.0
08/11:30am 13.0 8.9 7.7 70 2.6 WSW 19 28 10 15 1023.1 1023.3 0.0
08/11:00am 12.6 8.2 7.5 71 2.5 WSW 20 32 11 17 1023.4 1023.7 0.0
08/10:30am 12.2 7.8 7.3 72 2.4 WSW 20 30 11 16 1023.5 1023.8 0.0
08/10:00am 11.8 7.5 7.1 73 2.3 WSW 19 28 10 15 1023.6 1023.9 0.0
08/09:30am 10.2 7.1 7.1 81 1.5 WNW 13 19 7 10 1023.5 1023.8 0.0
08/09:00am 8.8 6.4 6.9 88 0.9 NW 9 13 5 7 1023.4 1023.7 0.6
08/08:30am 7.8 5.3 6.7 93 0.5 NW 9 13 5 7 1023.1 1023.3 0.6
08/08:00am 6.6 4.4 6.3 98 0.1 NW 7 11 4 6 1022.6 1022.8 0.6
08/07:30am 5.5 3.1 5.4 99 0.0 NNW 7 9 4 5 1022.3 1022.5 0.6
08/07:00am 5.4 2.6 5.1 98 0.1 N 9 11 5 6 1022.2 1022.4 0.6
08/06:30am 5.6 2.8 5.0 96 0.3 NNW 9 11 5 6 1021.9 1022.1 0.6
08/06:00am 6.1 3.9 5.4 95 0.3 N 6 7 3 4 1021.7 1021.9 0.6
08/05:30am 7.0 4.4 6.1 94 0.4 WNW 9 13 5 7 1021.6 1021.8 0.6
08/05:00am 7.3 4.7 6.2 93 0.5 WNW 9 13 5 7 1021.5 1021.7 0.6
08/04:30am 7.7 5.1 6.3 91 0.6 WNW 9 11 5 6 1021.5 1021.7 0.6
08/04:00am 8.7 6.3 7.0 89 0.8 WNW 9 13 5 7 1021.4 1021.6 0.6
08/03:30am 9.2 6.5 7.5 89 0.8 W 11 17 6 9 1021.5 1021.7 0.6
08/03:00am 9.7 6.8 8.1 90 0.8 W 13 17 7 9 1021.4 1021.6 0.6
08/02:30am 10.0 7.6 8.8 92 0.6 W 11 17 6 9 1021.3 1021.5 0.6
08/02:00am 10.3 8.5 9.5 95 0.4 W 9 15 5 8 1021.2 1021.4 0.6
08/01:30am 10.4 8.6 9.6 95 0.4 WNW 9 11 5 6 1021.1 1021.3 0.6
08/01:00am 10.5 8.5 10.2 98 0.2 WNW 11 15 6 8 1021.0 1021.2 0.6
08/12:30am 10.4 8.0 10.1 98 0.2 NW 13 19 7 10 1020.9 1021.1 0.6
08/12:00am 10.5 8.4 9.7 95 0.4 NNW 11 15 6 8 1020.7 1020.9 0.2
 
Date/Time
WST
Temp
°C
App
Temp
°C
Dew
Point
°C
Rel
Hum
%
Delta-T
°C
Wind Press
QNH
hPa
Press
MSL
hPa
Rain since
9am
mm
Dir  Spd
km/h
Gust
km/h
Spd
kts
Gust
kts
07/11:30pm 10.6 8.4 9.4 92 0.6 NNW 11 17 6 9 1020.7 1020.9 0.2
07/11:00pm 10.4 8.5 9.0 91 0.7 NNW 9 13 5 7 1020.8 1021.0 0.2
07/10:30pm 10.7 8.3 8.6 87 1.0 NW 11 15 6 8 1021.1 1021.3 0.2
07/10:00pm 10.6 8.1 8.4 86 1.1 NNW 11 15 6 8 1021.2 1021.4 0.2
07/09:30pm 10.4 7.9 8.0 85 1.2 NW 11 15 6 8 1021.2 1021.4 0.2
07/09:00pm 10.1 7.9 7.9 86 1.1 NNW 9 13 5 7 1021.1 1021.3 0.2
07/08:30pm 9.9 7.8 8.2 89 0.8 NNW 9 11 5 6 1021.0 1021.2 0.2
07/08:00pm 9.7 7.1 7.6 87 1.0 NNW 11 15 6 8 1020.9 1021.1 0.2
07/07:30pm 9.2 6.9 7.3 88 0.9 NNW 9 11 5 6 1020.8 1021.0 0.2
07/07:00pm 10.8 8.7 8.2 84 1.3 NW 9 13 5 7 1020.8 1021.0 0.2
07/06:30pm 11.4 9.9 8.4 82 1.5 WNW 6 7 3 4 1020.7 1020.9 0.2
07/06:00pm 12.3 10.7 8.6 78 1.9 NW 7 11 4 6 1020.4 1020.7 0.2
07/05:30pm 12.8 10.8 8.5 75 2.2 NNW 9 13 5 7 1020.2 1020.4 0.2
07/05:00pm 13.6 10.9 8.9 73 2.4 NW 13 19 7 10 1020.3 1020.6 0.2
07/04:30pm 13.9 10.7 8.5 70 2.8 NW 15 24 8 13 1020.3 1020.6 0.2
07/04:00pm 14.4 10.4 8.1 66 3.2 WNW 19 28 10 15 1020.1 1020.3 0.2
07/03:30pm 14.7 10.7 8.2 65 3.3 WNW 19 26 10 14 1020.1 1020.3 0.2
07/03:00pm 14.3 10.1 7.6 64 3.3 WNW 19 30 10 16 1020.0 1020.2 0.0
07/02:30pm 14.4 10.1 7.7 64 3.4 WNW 20 28 11 15 1020.0 1020.2 0.0
07/02:00pm 14.3 10.2 8.0 66 3.2 WNW 19 30 10 16 1020.1 1020.3 0.0
07/01:30pm 14.1 9.4 7.9 66 3.1 WNW 22 32 12 17 1020.3 1020.6 0.0
07/01:00pm 14.3 9.9 7.6 64 3.3 WNW 20 32 11 17 1020.4 1020.7 0.0
07/12:30pm 14.0 9.7 7.8 66 3.1 WNW 20 28 11 15 1020.6 1020.8 0.0
07/12:00pm 14.2 9.7 6.8 61 3.6 NW 20 32 11 17 1020.8 1021.0 0.0
07/11:30am 14.7 10.1 8.0 64 3.4 WNW 22 35 12 19 1021.3 1021.5 0.0
07/11:00am 14.3 10.2 8.0 66 3.2 WNW 19 32 10 17 1021.6 1021.8 0.0
07/10:30am 13.8 9.9 8.8 72 2.6 WNW 19 28 10 15 1021.7 1021.9 0.0
07/10:00am 12.0 8.9 8.7 80 1.7 NNW 15 24 8 13 1022.0 1022.2 0.0
07/09:30am 10.7 7.6 8.8 88 1.0 NNW 15 20 8 11 1021.9 1022.1 0.0
07/09:00am 9.3 6.0 8.2 93 0.5 NNW 15 22 8 12 1021.9 1022.1 0.6
07/08:30am 8.5 5.5 7.9 96 0.3 NNW 13 19 7 10 1021.7 1021.9 0.6
07/08:00am 7.4 4.3 7.3 99 0.0 NNW 13 19 7 10 1021.5 1021.7 0.6
07/07:30am 7.0 3.8 6.9 99 0.0 NNW 13 19 7 10 1021.2 1021.4 0.6
07/07:00am 6.5 3.6 6.4 99 0.0 N 11 17 6 9 1020.9 1021.1 0.6
07/06:30am 6.7 4.2 6.6 99 0.0 NNW 9 13 5 7 1020.3 1020.6 0.6
07/06:00am 7.0 3.8 6.9 99 0.0 N 13 19 7 10 1020.1 1020.3 0.6
07/05:30am 6.7 4.2 6.6 99 0.0 N 9 13 5 7 1019.9 1020.1 0.6
07/05:00am 6.8 3.9 6.7 99 0.0 N 11 13 6 7 1019.8 1020.0 0.6
07/04:30am 7.3 4.1 7.0 98 0.1 N 13 15 7 8 1019.6 1019.8 0.6
07/04:00am 7.7 5.0 7.4 98 0.1 N 11 15 6 8 1019.5 1019.7 0.6
07/03:30am 8.7 5.8 8.1 96 0.3 N 13 19 7 10 1019.4 1019.6 0.6
07/03:00am 8.9 6.0 8.3 96 0.3 NNW 13 19 7 10 1019.2 1019.4 0.6
07/02:30am 9.0 6.1 8.2 95 0.4 NNW 13 19 7 10 1019.1 1019.3 0.6
07/02:00am 9.3 5.7 8.4 94 0.4 NNW 17 24 9 13 1019.1 1019.3 0.6
07/01:30am 9.9 6.1 9.1 95 0.4 NNW 19 24 10 13 1018.9 1019.1 0.6
07/01:00am 10.0 6.7 9.5 97 0.3 NNW 17 22 9 12 1018.8 1019.0 0.6
07/12:30am 10.0 7.0 9.4 96 0.3 NNW 15 19 8 10 1019.0 1019.2 0.6
07/12:00am 10.5 7.6 9.6 94 0.5 NNW 15 19 8 10 1018.9 1019.1 0.6
 
Date/Time
WST
Temp
°C
App
Temp
°C
Dew
Point
°C
Rel
Hum
%
Delta-T
°C
Wind Press
QNH
hPa
Press
MSL
hPa
Rain since
9am
mm
Dir  Spd
km/h
Gust
km/h
Spd
kts
Gust
kts
06/11:30pm 10.7 7.8 9.8 94 0.5 NNW 15 20 8 11 1018.9 1019.1 0.6
06/11:00pm 11.1 7.4 10.0 93 0.6 NNW 20 30 11 16 1018.9 1019.1 0.6
06/10:30pm 11.5 7.8 10.1 91 0.7 NNW 20 30 11 16 1018.6 1018.8 0.4
06/10:00pm 12.0 8.6 10.4 90 0.8 NW 19 26 10 14 1018.4 1018.6 0.4
06/09:30pm 12.2 7.8 10.3 88 1.0 NW 24 33 13 18 1018.4 1018.6 0.4
06/09:00pm 13.3 9.0 9.4 77 2.0 NW 22 39 12 21 1018.2 1018.4 0.4
06/08:30pm 13.3 8.6 9.4 77 2.0 NW 24 39 13 21 1018.2 1018.4 0.4
06/08:00pm 13.7 8.9 9.0 73 2.4 NW 24 39 13 21 1018.2 1018.4 0.4
06/07:30pm 14.0 8.7 8.4 69 2.8 NW 26 39 14 21 1018.0 1018.2 0.4
06/07:00pm 14.0 9.7 7.1 63 3.4 WNW 19 32 10 17 1017.5 1017.7 0.4
06/06:30pm 13.9 9.9 6.5 61 3.6 NW 17 24 9 13 1017.1 1017.2 0.4
06/06:00pm 14.2 10.2 6.8 61 3.6 NW 17 24 9 13 1016.7 1016.9 0.4
06/05:30pm 14.8 10.3 6.9 59 3.9 NW 20 28 11 15 1016.2 1016.4 0.4
06/05:00pm 15.5 10.1 6.5 55 4.4 NW 24 37 13 20 1015.8 1016.0 0.4
06/04:30pm 16.4 11.0 6.2 51 5.0 NW 24 39 13 21 1015.4 1015.6 0.4
06/04:00pm 17.1 10.8 5.7 47 5.6 NW 28 46 15 25 1015.1 1015.3 0.4
06/03:57pm 17.2 10.9 5.8 47 5.6 NW 28 46 15 25 1015.1 1015.3 0.4
06/03:30pm 17.2 11.1 6.4 49 5.4 NW 28 44 15 24 1015.0 1015.2 0.4
06/03:00pm 17.5 10.5 5.8 46 5.8 NW 32 52 17 28 1014.8 1015.0 0.4
06/02:44pm 17.6 10.5 5.5 45 5.9 NW 32 54 17 29 1014.8 1015.0 0.4
06/02:30pm 17.6 10.8 6.8 49 5.4 NW 32 46 17 25 1014.9 1015.1 0.4
06/02:00pm 17.5 10.8 7.3 51 5.2 NW 32 50 17 27 1015.0 1015.2 0.2
06/01:39pm 17.4 10.6 7.5 52 5.1 NW 33 52 18 28 1015.2 1015.4 0.2
06/01:30pm 17.2 9.9 7.3 52 5.0 NW 35 52 19 28 1015.1 1015.3 0.2
06/01:07pm 17.2 10.9 7.3 52 5.0 NNW 30 57 16 31 1015.3 1015.5 0.2
06/01:00pm 16.8 10.9 9.0 60 4.1 NW 30 41 16 22 1015.3 1015.5 0.2
06/12:30pm 17.0 11.1 9.2 60 4.1 NNW 30 48 16 26 1015.6 1015.8 0.2
06/12:06pm 16.5 11.1 9.4 63 3.7 NNW 28 46 15 25 1015.8 1016.0 0.2
06/12:00pm 16.2 11.0 10.3 68 3.2 NNW 28 41 15 22 1015.9 1016.1 0.2
06/11:47am 16.4 11.1 10.0 66 3.4 NNW 28 50 15 27 1016.1 1016.3 0.2
06/11:30am 15.4 11.2 11.0 75 2.4 NNW 24 33 13 18 1016.3 1016.5 0.2
06/11:00am 14.4 10.6 11.2 81 1.7 NNW 22 33 12 18 1016.9 1017.0 0.2
06/10:30am 13.5 10.0 11.0 85 1.3 N 20 30 11 16 1016.7 1016.9 0.2
06/10:00am 11.8 9.1 10.2 90 0.8 N 15 19 8 10 1017.0 1017.1 0.2
06/09:30am 11.6 9.0 9.5 87 1.1 N 13 19 7 10 1017.0 1017.1 0.2
06/09:00am 12.8 8.6 8.3 74 2.3 N 20 26 11 14 1017.0 1017.1 0.0
06/08:30am 12.6 9.7 8.3 75 2.2 N 13 19 7 10 1016.5 1016.7 0.0
06/08:00am 11.5 7.6 7.0 74 2.2 N 17 20 9 11 1016.4 1016.6 0.0
06/07:30am 10.2 7.7 6.5 78 1.8 N 9 13 5 7 1016.1 1016.3 0.0
06/07:00am 9.4 6.8 5.9 79 1.6 N 9 11 5 6 1015.9 1016.1 0.0
06/06:30am 9.2 6.9 5.8 79 1.6 NNE 7 9 4 5 1015.5 1015.7 0.0
06/06:00am 10.3 7.6 5.7 73 2.1 N 9 9 5 5 1015.2 1015.4 0.0
06/05:30am 11.3 9.6 5.8 69 2.6 NNE 4 7 2 4 1014.7 1014.9 0.0
06/05:00am 11.8 9.7 5.7 66 2.9 N 6 9 3 5 1014.5 1014.7 0.0
06/04:30am 10.6 8.3 5.6 71 2.3 N 7 11 4 6 1015.0 1015.2 0.0
06/04:00am 10.5 8.2 5.5 71 2.3 N 7 11 4 6 1014.8 1015.0 0.0
06/03:30am 10.6 7.5 5.4 70 2.4 N 11 15 6 8 1015.1 1015.3 0.0
06/03:00am 11.6 6.7 5.0 64 3.1 NW 20 30 11 16 1015.2 1015.4 0.0
06/02:30am 14.5 8.7 4.2 50 4.8 NE 24 37 13 20 1013.4 1013.5 0.0
06/02:00am 13.9 8.9 4.5 53 4.4 NE 20 30 11 16 1013.6 1013.7 0.0
06/01:30am 14.1 9.6 4.4 52 4.5 NE 17 24 9 13 1014.1 1014.2 0.0
06/01:00am 14.5 10.4 4.2 50 4.8 NE 15 24 8 13 1014.5 1014.7 0.0
06/12:30am 14.3 11.1 5.1 54 4.4 NNE 11 19 6 10 1015.0 1015.2 0.0
06/12:00am 15.2 11.1 4.6 49 5.0 NE 15 20 8 11 1015.0 1015.2 0.0
 
Date/Time
WST
Temp
°C
App
Temp
°C
Dew
Point
°C
Rel
Hum
%
Delta-T
°C
Wind Press
QNH
hPa
Press
MSL
hPa
Rain since
9am
mm
Dir  Spd
km/h
Gust
km/h
Spd
kts
Gust
kts
05/11:30pm 13.8 9.9 5.4 57 4.0 ENE 15 22 8 12 1015.5 1015.7 0.0
05/11:00pm 13.8 10.4 5.7 58 3.9 ENE 13 17 7 9 1015.8 1016.0 0.0
05/10:30pm 11.5 9.5 7.0 74 2.2 NNE 7 11 4 6 1016.4 1016.6 0.0
05/10:00pm 12.2 11.5 6.9 70 2.6 CALM 0 6 0 3 1016.5 1016.7 0.0
05/09:30pm 13.2 11.3 6.8 65 3.1 WNW 6 9 3 5 1016.5 1016.7 0.0

Other formats

Comma delimited format used in spreadsheet applications
http://www.bom.gov.au/fwo/IDW60801/IDW60801.95637.axf

JavaScript Object Notation format (JSON) in row-major order
http://www.bom.gov.au/fwo/IDW60801/IDW60801.95637.json

Data quality

Most of these data are generated automatically and are frequently updated. Quality checks on data are not normally performed. It is possible for incorrect values to appear. Refer to information at About Latest Weather Observations and please check the disclaimer before using these data.